< < Back
Terminal Aerodrome Forecast


Current Version              Previous Versions:   1  2  3  4  5  6  7  8  9  

Terminal Aerodrome Forecast

883
FTUS42 KJAX 272300
TAFSSI
TAF
KSSI 272330Z 2800/2824 24008KT P6SM SCT250
     FM281300 25011G18KT P6SM SCT030 SCT250
     FM282000 24012G22KT P6SM VCTS BKN035CB BKN250
      TEMPO 2820/2824 VRB20G30KT 2SM -TSRA OVC025CB=



Latest METAR

253
SAUS70 KWBC 281600 RRE
MTRSSI
METAR KSSI 281553Z AUTO 25010KT 10SM CLR 33/24 A2995 RMK AO2 SLP143
T03280244


USA.gov is the U.S. government's official web portal to all federal, state and local government web resources and services.